sensor_id;sensor_type;location;lat;lon;timestamp;pressure;altitude;pressure_sealevel;temperature;humidity
84990;BME280;75307;53.836;10.476;2024-01-25T00:01:56;101544.66;;;6.24;74.76
84990;BME280;75307;53.836;10.476;2024-01-25T00:03:58;101547.28;;;6.24;74.36
84990;BME280;75307;53.836;10.476;2024-01-25T00:06:00;101549.00;;;6.25;74.97
84990;BME280;75307;53.836;10.476;2024-01-25T00:08:04;101543.78;;;6.25;74.88
84990;BME280;75307;53.836;10.476;2024-01-25T00:10:05;101540.31;;;6.25;74.46
84990;BME280;75307;53.836;10.476;2024-01-25T00:12:07;101549.88;;;6.24;74.77
84990;BME280;75307;53.836;10.476;2024-01-25T00:14:09;101542.91;;;6.22;74.82
84990;BME280;75307;53.836;10.476;2024-01-25T00:16:11;101542.91;;;6.22;74.68
84990;BME280;75307;53.836;10.476;2024-01-25T00:18:13;101528.13;;;6.21;74.93
84990;BME280;75307;53.836;10.476;2024-01-25T00:20:15;101537.72;;;6.20;75.03
84990;BME280;75307;53.836;10.476;2024-01-25T00:22:16;101533.34;;;6.22;74.98
84990;BME280;75307;53.836;10.476;2024-01-25T00:24:19;101540.31;;;6.22;74.80
84990;BME280;75307;53.836;10.476;2024-01-25T00:26:21;101542.94;;;6.20;74.86
84990;BME280;75307;53.836;10.476;2024-01-25T00:28:23;101549.00;;;6.17;74.55
84990;BME280;75307;53.836;10.476;2024-01-25T00:30:24;101544.66;;;6.16;74.68
84990;BME280;75307;53.836;10.476;2024-01-25T00:32:26;101566.41;;;6.17;74.96
84990;BME280;75307;53.836;10.476;2024-01-25T00:34:27;101572.50;;;6.16;74.45
84990;BME280;75307;53.836;10.476;2024-01-25T00:36:30;101569.03;;;6.17;75.35
84990;BME280;75307;53.836;10.476;2024-01-25T00:38:32;101563.81;;;6.12;75.00
84990;BME280;75307;53.836;10.476;2024-01-25T00:40:36;101569.06;;;6.14;74.54
84990;BME280;75307;53.836;10.476;2024-01-25T00:42:41;101553.38;;;6.06;74.94
84990;BME280;75307;53.836;10.476;2024-01-25T00:44:42;101550.75;;;6.12;74.77
84990;BME280;75307;53.836;10.476;2024-01-25T00:46:44;101560.34;;;6.13;75.10
84990;BME280;75307;53.836;10.476;2024-01-25T00:49:01;101560.34;;;6.12;74.83
84990;BME280;75307;53.836;10.476;2024-01-25T00:51:07;101558.59;;;6.12;75.33
84990;BME280;75307;53.836;10.476;2024-01-25T00:53:09;101549.91;;;6.12;75.04
84990;BME280;75307;53.836;10.476;2024-01-25T00:55:11;101553.41;;;6.05;74.64
84990;BME280;75307;53.836;10.476;2024-01-25T00:57:15;101563.81;;;6.11;74.82
84990;BME280;75307;53.836;10.476;2024-01-25T00:59:17;101567.28;;;6.13;74.77
84990;BME280;75307;53.836;10.476;2024-01-25T01:01:21;101582.09;;;6.12;75.53
84990;BME280;75307;53.836;10.476;2024-01-25T01:03:23;101578.63;;;6.10;74.78
84990;BME280;75307;53.836;10.476;2024-01-25T01:05:26;101574.25;;;6.11;75.18
84990;BME280;75307;53.836;10.476;2024-01-25T01:07:28;101578.63;;;6.07;75.37
84990;BME280;75307;53.836;10.476;2024-01-25T01:09:31;101576.88;;;6.08;75.06
84990;BME280;75307;53.836;10.476;2024-01-25T01:11:37;101566.44;;;6.08;74.90
84990;BME280;75307;53.836;10.476;2024-01-25T01:13:40;101560.34;;;6.07;75.25
84990;BME280;75307;53.836;10.476;2024-01-25T01:15:42;101567.31;;;6.10;75.44
84990;BME280;75307;53.836;10.476;2024-01-25T01:17:44;101574.25;;;6.12;74.72
84990;BME280;75307;53.836;10.476;2024-01-25T01:19:46;101580.34;;;6.13;75.03
84990;BME280;75307;53.836;10.476;2024-01-25T01:21:47;101577.75;;;6.11;74.90
84990;BME280;75307;53.836;10.476;2024-01-25T01:23:49;101584.69;;;6.12;74.88
84990;BME280;75307;53.836;10.476;2024-01-25T01:25:51;101588.16;;;6.13;75.43
84990;BME280;75307;53.836;10.476;2024-01-25T01:27:52;101588.19;;;6.16;75.12
84990;BME280;75307;53.836;10.476;2024-01-25T01:29:55;101602.09;;;6.15;75.27
84990;BME280;75307;53.836;10.476;2024-01-25T01:31:57;101584.72;;;6.14;74.55
84990;BME280;75307;53.836;10.476;2024-01-25T01:33:59;101609.94;;;6.16;74.89
84990;BME280;75307;53.836;10.476;2024-01-25T01:36:01;101616.88;;;6.16;75.11
84990;BME280;75307;53.836;10.476;2024-01-25T01:38:02;101624.72;;;6.14;75.22
84990;BME280;75307;53.836;10.476;2024-01-25T01:40:05;101622.13;;;6.14;74.70
84990;BME280;75307;53.836;10.476;2024-01-25T01:42:06;101623.00;;;6.15;74.79
84990;BME280;75307;53.836;10.476;2024-01-25T01:44:08;101626.47;;;6.20;74.89
84990;BME280;75307;53.836;10.476;2024-01-25T01:46:15;101623.88;;;6.19;75.01
84990;BME280;75307;53.836;10.476;2024-01-25T01:48:22;101629.94;;;6.19;74.55
84990;BME280;75307;53.836;10.476;2024-01-25T01:50:24;101635.16;;;6.19;74.43
84990;BME280;75307;53.836;10.476;2024-01-25T01:52:25;101623.88;;;6.19;74.70
84990;BME280;75307;53.836;10.476;2024-01-25T01:54:27;101636.91;;;6.20;74.97
84990;BME280;75307;53.836;10.476;2024-01-25T01:56:29;101611.66;;;6.08;74.44
84990;BME280;75307;53.836;10.476;2024-01-25T01:58:30;101623.84;;;6.20;74.37
84990;BME280;75307;53.836;10.476;2024-01-25T02:00:33;101628.19;;;6.20;74.39
84990;BME280;75307;53.836;10.476;2024-01-25T02:02:36;101612.53;;;6.20;74.81
84990;BME280;75307;53.836;10.476;2024-01-25T02:04:38;101630.81;;;6.20;74.98
84990;BME280;75307;53.836;10.476;2024-01-25T02:06:42;101631.69;;;6.19;74.39
84990;BME280;75307;53.836;10.476;2024-01-25T02:08:44;101633.44;;;6.18;74.60
84990;BME280;75307;53.836;10.476;2024-01-25T02:10:46;101633.44;;;6.20;74.31
84990;BME280;75307;53.836;10.476;2024-01-25T02:12:47;101638.66;;;6.18;74.60
84990;BME280;75307;53.836;10.476;2024-01-25T02:14:49;101638.66;;;6.18;74.93
84990;BME280;75307;53.836;10.476;2024-01-25T02:16:50;101637.75;;;6.17;74.45
84990;BME280;75307;53.836;10.476;2024-01-25T02:18:53;101637.78;;;6.16;74.54
84990;BME280;75307;53.836;10.476;2024-01-25T02:20:54;101645.59;;;6.17;74.96
84990;BME280;75307;53.836;10.476;2024-01-25T02:22:57;101657.78;;;6.20;75.05
84990;BME280;75307;53.836;10.476;2024-01-25T02:24:59;101656.03;;;6.21;74.53
84990;BME280;75307;53.836;10.476;2024-01-25T02:27:01;101652.56;;;6.20;74.64
84990;BME280;75307;53.836;10.476;2024-01-25T02:29:05;101661.25;;;6.21;74.10
84990;BME280;75307;53.836;10.476;2024-01-25T02:31:08;101664.75;;;6.20;74.19
84990;BME280;75307;53.836;10.476;2024-01-25T02:33:10;101672.59;;;6.20;74.49
84990;BME280;75307;53.836;10.476;2024-01-25T02:35:12;101680.44;;;6.18;74.64
84990;BME280;75307;53.836;10.476;2024-01-25T02:37:13;101683.88;;;6.25;74.20
84990;BME280;75307;53.836;10.476;2024-01-25T02:39:17;101675.19;;;6.26;74.74
84990;BME280;75307;53.836;10.476;2024-01-25T02:41:18;101677.81;;;6.29;74.05
84990;BME280;75307;53.836;10.476;2024-01-25T02:43:20;101670.84;;;6.29;74.49
84990;BME280;75307;53.836;10.476;2024-01-25T02:45:23;101683.00;;;6.27;74.02
84990;BME280;75307;53.836;10.476;2024-01-25T02:47:24;101683.88;;;6.29;74.02
84990;BME280;75307;53.836;10.476;2024-01-25T02:49:26;101697.81;;;6.31;74.02
84990;BME280;75307;53.836;10.476;2024-01-25T02:51:28;101695.19;;;6.30;74.11
84990;BME280;75307;53.836;10.476;2024-01-25T02:53:28;101700.44;;;6.28;74.08
84990;BME280;75307;53.836;10.476;2024-01-25T02:55:31;101692.59;;;6.28;73.66
84990;BME280;75307;53.836;10.476;2024-01-25T02:57:33;101674.31;;;6.30;73.67
84990;BME280;75307;53.836;10.476;2024-01-25T02:59:35;101697.81;;;6.31;73.26
84990;BME280;75307;53.836;10.476;2024-01-25T03:01:38;101694.31;;;6.32;73.27
84990;BME280;75307;53.836;10.476;2024-01-25T03:03:39;101699.53;;;6.35;74.01
84990;BME280;75307;53.836;10.476;2024-01-25T03:05:40;101703.91;;;6.35;73.59
84990;BME280;75307;53.836;10.476;2024-01-25T03:07:41;101707.38;;;6.34;73.58
84990;BME280;75307;53.836;10.476;2024-01-25T03:09:43;101703.88;;;6.32;73.17
84990;BME280;75307;53.836;10.476;2024-01-25T03:11:46;101706.50;;;6.30;73.95
84990;BME280;75307;53.836;10.476;2024-01-25T03:13:48;101714.34;;;6.29;73.30
84990;BME280;75307;53.836;10.476;2024-01-25T03:15:49;101719.56;;;6.29;73.42
84990;BME280;75307;53.836;10.476;2024-01-25T03:17:51;101723.94;;;6.28;73.70
84990;BME280;75307;53.836;10.476;2024-01-25T03:19:52;101687.34;;;5.98;73.47
84990;BME280;75307;53.836;10.476;2024-01-25T03:21:54;101732.63;;;6.26;73.53
84990;BME280;75307;53.836;10.476;2024-01-25T03:23:56;101746.56;;;6.25;73.47
84990;BME280;75307;53.836;10.476;2024-01-25T03:25:58;101745.69;;;6.26;73.61
84990;BME280;75307;53.836;10.476;2024-01-25T03:28:00;101743.06;;;6.24;73.26
84990;BME280;75307;53.836;10.476;2024-01-25T03:30:03;101746.56;;;6.23;73.22
84990;BME280;75307;53.836;10.476;2024-01-25T03:32:06;101743.06;;;6.21;73.67
84990;BME280;75307;53.836;10.476;2024-01-25T03:34:07;101758.72;;;6.23;73.88
84990;BME280;75307;53.836;10.476;2024-01-25T03:36:09;101747.44;;;6.24;73.65
84990;BME280;75307;53.836;10.476;2024-01-25T03:38:10;101746.53;;;6.26;73.42
84990;BME280;75307;53.836;10.476;2024-01-25T03:40:14;101754.38;;;6.25;73.37
84990;BME280;75307;53.836;10.476;2024-01-25T03:42:15;101707.38;;;6.02;73.01
84990;BME280;75307;53.836;10.476;2024-01-25T03:44:18;101750.91;;;6.26;73.62
84990;BME280;75307;53.836;10.476;2024-01-25T03:46:19;101749.16;;;6.26;73.85
84990;BME280;75307;53.836;10.476;2024-01-25T03:48:21;101769.19;;;6.29;73.13
84990;BME280;75307;53.836;10.476;2024-01-25T03:50:23;101750.03;;;6.28;73.16
84990;BME280;75307;53.836;10.476;2024-01-25T03:52:25;101767.44;;;6.29;72.76
84990;BME280;75307;53.836;10.476;2024-01-25T03:54:30;101772.66;;;6.31;73.41
84990;BME280;75307;53.836;10.476;2024-01-25T03:56:32;101770.91;;;6.31;73.19
84990;BME280;75307;53.836;10.476;2024-01-25T03:58:33;101767.44;;;6.31;72.87
84990;BME280;75307;53.836;10.476;2024-01-25T04:00:36;101771.78;;;6.32;72.95
84990;BME280;75307;53.836;10.476;2024-01-25T04:02:37;101768.28;;;6.31;73.16
84990;BME280;75307;53.836;10.476;2024-01-25T04:04:39;101770.03;;;6.32;72.86
84990;BME280;75307;53.836;10.476;2024-01-25T04:06:42;101762.22;;;6.20;73.32
84990;BME280;75307;53.836;10.476;2024-01-25T04:08:43;101767.41;;;6.32;73.03
84990;BME280;75307;53.836;10.476;2024-01-25T04:10:45;101766.56;;;6.35;72.45
84990;BME280;75307;53.836;10.476;2024-01-25T04:12:47;101777.00;;;6.35;72.69
84990;BME280;75307;53.836;10.476;2024-01-25T04:14:49;101768.31;;;6.36;72.45
84990;BME280;75307;53.836;10.476;2024-01-25T04:16:52;101773.53;;;6.36;72.61
84990;BME280;75307;53.836;10.476;2024-01-25T04:18:53;101780.50;;;6.34;72.86
84990;BME280;75307;53.836;10.476;2024-01-25T04:20:55;101785.72;;;6.28;72.69
84990;BME280;75307;53.836;10.476;2024-01-25T04:22:57;101798.75;;;6.26;72.79
84990;BME280;75307;53.836;10.476;2024-01-25T04:24:57;101800.50;;;6.27;72.90
84990;BME280;75307;53.836;10.476;2024-01-25T04:26:59;101800.50;;;6.26;73.20
84990;BME280;75307;53.836;10.476;2024-01-25T04:29:01;101802.25;;;6.24;73.26
84990;BME280;75307;53.836;10.476;2024-01-25T04:31:02;101797.88;;;6.23;72.98
84990;BME280;75307;53.836;10.476;2024-01-25T04:33:06;101804.00;;;6.23;72.56
84990;BME280;75307;53.836;10.476;2024-01-25T04:35:08;101792.69;;;6.24;72.87
84990;BME280;75307;53.836;10.476;2024-01-25T04:37:09;101808.34;;;6.24;72.61
84990;BME280;75307;53.836;10.476;2024-01-25T04:39:11;101803.09;;;6.23;72.80
84990;BME280;75307;53.836;10.476;2024-01-25T04:41:13;101769.13;;;6.01;72.75
84990;BME280;75307;53.836;10.476;2024-01-25T04:43:14;101807.44;;;6.22;72.69
84990;BME280;75307;53.836;10.476;2024-01-25T04:45:16;101829.22;;;6.20;73.18
84990;BME280;75307;53.836;10.476;2024-01-25T04:47:17;101825.72;;;6.16;73.04
84990;BME280;75307;53.836;10.476;2024-01-25T04:49:21;101830.06;;;6.17;72.90
84990;BME280;75307;53.836;10.476;2024-01-25T04:51:22;101833.56;;;6.16;73.31
84990;BME280;75307;53.836;10.476;2024-01-25T04:53:23;101827.47;;;6.15;72.82
84990;BME280;75307;53.836;10.476;2024-01-25T04:55:25;101830.06;;;6.17;72.37
84990;BME280;75307;53.836;10.476;2024-01-25T04:57:27;101815.28;;;6.14;72.77
84990;BME280;75307;53.836;10.476;2024-01-25T04:59:28;101826.63;;;6.18;73.16
84990;BME280;75307;53.836;10.476;2024-01-25T05:01:29;101823.09;;;6.16;72.40
84990;BME280;75307;53.836;10.476;2024-01-25T05:03:31;101825.72;;;6.16;72.90
84990;BME280;75307;53.836;10.476;2024-01-25T05:05:33;101815.28;;;6.14;72.85
84990;BME280;75307;53.836;10.476;2024-01-25T05:07:34;101816.13;;;6.12;73.14
84990;BME280;75307;53.836;10.476;2024-01-25T05:09:36;101814.41;;;6.11;72.51
84990;BME280;75307;53.836;10.476;2024-01-25T05:11:38;101819.63;;;6.09;72.98
84990;BME280;75307;53.836;10.476;2024-01-25T05:13:40;101823.97;;;6.06;72.48
84990;BME280;75307;53.836;10.476;2024-01-25T05:15:42;101829.16;;;6.03;73.04
84990;BME280;75307;53.836;10.476;2024-01-25T05:17:44;101824.81;;;6.02;73.00
84990;BME280;75307;53.836;10.476;2024-01-25T05:19:46;101835.25;;;6.02;72.72
84990;BME280;75307;53.836;10.476;2024-01-25T05:21:49;101826.56;;;6.03;72.72
84990;BME280;75307;53.836;10.476;2024-01-25T05:23:50;101825.69;;;6.02;72.37
84990;BME280;75307;53.836;10.476;2024-01-25T05:25:52;101792.50;;;5.74;72.93
84990;BME280;75307;53.836;10.476;2024-01-25T05:27:54;101819.53;;;5.86;72.63
84990;BME280;75307;53.836;10.476;2024-01-25T05:29:56;101824.75;;;5.86;73.14
84990;BME280;75307;53.836;10.476;2024-01-25T05:31:57;101821.22;;;5.84;72.67
84990;BME280;75307;53.836;10.476;2024-01-25T05:33:59;101821.25;;;5.81;72.57
84990;BME280;75307;53.836;10.476;2024-01-25T05:36:01;101839.50;;;5.84;72.60
84990;BME280;75307;53.836;10.476;2024-01-25T05:38:04;101848.19;;;5.79;73.18
84990;BME280;75307;53.836;10.476;2024-01-25T05:40:07;101842.09;;;5.75;72.76
84990;BME280;75307;53.836;10.476;2024-01-25T05:42:09;101853.41;;;5.77;72.75
84990;BME280;75307;53.836;10.476;2024-01-25T05:44:12;101861.25;;;5.80;72.65
84990;BME280;75307;53.836;10.476;2024-01-25T05:46:13;101875.16;;;5.76;72.86
84990;BME280;75307;53.836;10.476;2024-01-25T05:48:15;101869.88;;;5.69;73.06
84990;BME280;75307;53.836;10.476;2024-01-25T05:50:17;101850.78;;;5.77;73.15
84990;BME280;75307;53.836;10.476;2024-01-25T05:52:18;101872.56;;;5.81;72.76
84990;BME280;75307;53.836;10.476;2024-01-25T05:54:23;101873.41;;;5.78;73.02
84990;BME280;75307;53.836;10.476;2024-01-25T05:56:24;101883.84;;;5.78;73.25
84990;BME280;75307;53.836;10.476;2024-01-25T05:58:26;101875.13;;;5.78;72.52
84990;BME280;75307;53.836;10.476;2024-01-25T06:00:27;101878.63;;;5.83;72.91
84990;BME280;75307;53.836;10.476;2024-01-25T06:02:29;101875.16;;;5.84;73.06
84990;BME280;75307;53.836;10.476;2024-01-25T06:04:31;101882.13;;;5.86;72.27
84990;BME280;75307;53.836;10.476;2024-01-25T06:06:33;101888.19;;;5.84;72.52
84990;BME280;75307;53.836;10.476;2024-01-25T06:08:34;101889.03;;;5.72;73.00
84990;BME280;75307;53.836;10.476;2024-01-25T06:10:37;101906.47;;;5.82;72.92
84990;BME280;75307;53.836;10.476;2024-01-25T06:12:40;101902.13;;;5.80;72.97
84990;BME280;75307;53.836;10.476;2024-01-25T06:14:41;101906.44;;;5.79;72.49
84990;BME280;75307;53.836;10.476;2024-01-25T06:16:43;101902.97;;;5.77;72.48
84990;BME280;75307;53.836;10.476;2024-01-25T06:18:45;101904.72;;;5.77;73.16
84990;BME280;75307;53.836;10.476;2024-01-25T06:20:48;101909.94;;;5.78;72.99
84990;BME280;75307;53.836;10.476;2024-01-25T06:22:50;101915.16;;;5.81;72.69
84990;BME280;75307;53.836;10.476;2024-01-25T06:24:52;101923.88;;;5.83;72.69
84990;BME280;75307;53.836;10.476;2024-01-25T06:26:54;101940.34;;;5.79;72.67
84990;BME280;75307;53.836;10.476;2024-01-25T06:28:57;101949.94;;;5.77;73.37
84990;BME280;75307;53.836;10.476;2024-01-25T06:31:00;101948.19;;;5.78;73.38
84990;BME280;75307;53.836;10.476;2024-01-25T06:33:02;101950.78;;;5.75;72.69
84990;BME280;75307;53.836;10.476;2024-01-25T06:35:05;101949.91;;;5.74;73.47
84990;BME280;75307;53.836;10.476;2024-01-25T06:37:07;101951.59;;;5.69;73.30
84990;BME280;75307;53.836;10.476;2024-01-25T06:39:10;101956.78;;;5.64;73.19
84990;BME280;75307;53.836;10.476;2024-01-25T06:41:12;101964.63;;;5.64;73.20
84990;BME280;75307;53.836;10.476;2024-01-25T06:43:15;101962.84;;;5.59;73.58
84990;BME280;75307;53.836;10.476;2024-01-25T06:45:16;101969.81;;;5.57;73.27
84990;BME280;75307;53.836;10.476;2024-01-25T06:47:18;101965.47;;;5.57;73.44
84990;BME280;75307;53.836;10.476;2024-01-25T06:49:20;101965.47;;;5.56;73.72
84990;BME280;75307;53.836;10.476;2024-01-25T06:51:22;101963.69;;;5.53;73.27
84990;BME280;75307;53.836;10.476;2024-01-25T06:53:22;101978.44;;;5.48;73.50
84990;BME280;75307;53.836;10.476;2024-01-25T06:55:24;101989.72;;;5.47;73.50
84990;BME280;75307;53.836;10.476;2024-01-25T06:57:25;101988.88;;;5.47;73.70
84990;BME280;75307;53.836;10.476;2024-01-25T06:59:28;101988.75;;;5.36;74.08
84990;BME280;75307;53.836;10.476;2024-01-25T07:01:30;101995.78;;;5.43;73.95
84990;BME280;75307;53.836;10.476;2024-01-25T07:03:33;102003.59;;;5.45;73.35
84990;BME280;75307;53.836;10.476;2024-01-25T07:05:34;102004.47;;;5.45;73.64
84990;BME280;75307;53.836;10.476;2024-01-25T07:07:36;102010.56;;;5.46;73.50
84990;BME280;75307;53.836;10.476;2024-01-25T07:09:38;102010.59;;;5.47;73.37
84990;BME280;75307;53.836;10.476;2024-01-25T07:11:40;102014.06;;;5.49;73.59
84990;BME280;75307;53.836;10.476;2024-01-25T07:13:42;102017.59;;;5.53;73.70
84990;BME280;75307;53.836;10.476;2024-01-25T07:15:45;102014.06;;;5.51;73.66
84990;BME280;75307;53.836;10.476;2024-01-25T07:17:47;102013.25;;;5.53;73.92
84990;BME280;75307;53.836;10.476;2024-01-25T07:19:49;102024.53;;;5.54;73.58
84990;BME280;75307;53.836;10.476;2024-01-25T07:21:50;102029.75;;;5.54;73.59
84990;BME280;75307;53.836;10.476;2024-01-25T07:23:52;101976.47;;;5.21;73.58
84990;BME280;75307;53.836;10.476;2024-01-25T07:25:54;102034.94;;;5.49;73.96
84990;BME280;75307;53.836;10.476;2024-01-25T07:27:55;102041.88;;;5.49;73.44
84990;BME280;75307;53.836;10.476;2024-01-25T07:29:56;102034.94;;;5.49;73.65
84990;BME280;75307;53.836;10.476;2024-01-25T07:31:59;102048.84;;;5.48;74.12
84990;BME280;75307;53.836;10.476;2024-01-25T07:34:01;102045.38;;;5.49;74.04
84990;BME280;75307;53.836;10.476;2024-01-25T07:36:04;102045.41;;;5.55;74.04
84990;BME280;75307;53.836;10.476;2024-01-25T07:38:05;102048.91;;;5.59;73.69
84990;BME280;75307;53.836;10.476;2024-01-25T07:40:08;102042.00;;;5.61;73.39
84990;BME280;75307;53.836;10.476;2024-01-25T07:42:10;102048.91;;;5.59;73.82
84990;BME280;75307;53.836;10.476;2024-01-25T07:44:12;102052.41;;;5.58;73.92
84990;BME280;75307;53.836;10.476;2024-01-25T07:46:14;102048.03;;;5.57;73.65
84990;BME280;75307;53.836;10.476;2024-01-25T07:48:17;102056.75;;;5.60;74.08
84990;BME280;75307;53.836;10.476;2024-01-25T07:50:19;102067.22;;;5.63;73.46
84990;BME280;75307;53.836;10.476;2024-01-25T07:52:20;102063.78;;;5.66;73.77
84990;BME280;75307;53.836;10.476;2024-01-25T07:54:22;102065.50;;;5.69;73.90
84990;BME280;75307;53.836;10.476;2024-01-25T07:56:24;102061.16;;;5.69;73.47
84990;BME280;75307;53.836;10.476;2024-01-25T07:58:25;102066.38;;;5.66;73.96
84990;BME280;75307;53.836;10.476;2024-01-25T08:00:30;102072.44;;;5.65;73.62
84990;BME280;75307;53.836;10.476;2024-01-25T08:02:32;102071.56;;;5.63;73.27
84990;BME280;75307;53.836;10.476;2024-01-25T08:04:35;102073.31;;;5.64;73.64
84990;BME280;75307;53.836;10.476;2024-01-25T08:06:37;102077.59;;;5.59;73.71
84990;BME280;75307;53.836;10.476;2024-01-25T08:08:39;102071.56;;;5.63;74.09
84990;BME280;75307;53.836;10.476;2024-01-25T08:10:40;102072.44;;;5.65;73.45
84990;BME280;75307;53.836;10.476;2024-01-25T08:12:41;102058.47;;;5.57;73.48
84990;BME280;75307;53.836;10.476;2024-01-25T08:14:44;102076.81;;;5.66;73.37
84990;BME280;75307;53.836;10.476;2024-01-25T08:16:46;102071.59;;;5.66;73.69
84990;BME280;75307;53.836;10.476;2024-01-25T08:18:48;102050.63;;;5.54;73.60
84990;BME280;75307;53.836;10.476;2024-01-25T08:20:51;102068.13;;;5.65;73.72
84990;BME280;75307;53.836;10.476;2024-01-25T08:22:52;102064.59;;;5.62;73.79
84990;BME280;75307;53.836;10.476;2024-01-25T08:24:54;102063.75;;;5.61;73.32
84990;BME280;75307;53.836;10.476;2024-01-25T08:26:56;102065.44;;;5.59;73.97
84990;BME280;75307;53.836;10.476;2024-01-25T08:28:57;102068.09;;;5.61;73.71
84990;BME280;75307;53.836;10.476;2024-01-25T08:30:59;102073.31;;;5.61;73.54
84990;BME280;75307;53.836;10.476;2024-01-25T08:33:01;102076.78;;;5.63;73.25
84990;BME280;75307;53.836;10.476;2024-01-25T08:35:04;102071.59;;;5.68;73.55
84990;BME280;75307;53.836;10.476;2024-01-25T08:37:07;102072.50;;;5.71;73.61
84990;BME280;75307;53.836;10.476;2024-01-25T08:39:09;102080.34;;;5.74;73.22
84990;BME280;75307;53.836;10.476;2024-01-25T08:41:11;102090.81;;;5.77;73.86
84990;BME280;75307;53.836;10.476;2024-01-25T08:43:14;102088.19;;;5.79;73.29
84990;BME280;75307;53.836;10.476;2024-01-25T08:45:16;102105.63;;;5.83;73.61
84990;BME280;75307;53.836;10.476;2024-01-25T08:47:18;102108.28;;;5.87;73.52
84990;BME280;75307;53.836;10.476;2024-01-25T08:49:19;102101.31;;;5.85;73.38
84990;BME280;75307;53.836;10.476;2024-01-25T08:51:20;102098.72;;;5.85;73.35
84990;BME280;75307;53.836;10.476;2024-01-25T08:53:23;102124.06;;;5.97;73.78
84990;BME280;75307;53.836;10.476;2024-01-25T08:55:27;102123.22;;;5.99;73.20
84990;BME280;75307;53.836;10.476;2024-01-25T08:57:29;102118.88;;;6.03;73.76
84990;BME280;75307;53.836;10.476;2024-01-25T08:59:31;102132.81;;;6.06;73.72
84990;BME280;75307;53.836;10.476;2024-01-25T09:01:33;102125.91;;;6.10;73.32
84990;BME280;75307;53.836;10.476;2024-01-25T09:03:35;102132.00;;;6.12;73.14
84990;BME280;75307;53.836;10.476;2024-01-25T09:05:36;102127.66;;;6.14;73.12
84990;BME280;75307;53.836;10.476;2024-01-25T09:07:41;102127.66;;;6.17;73.54
84990;BME280;75307;53.836;10.476;2024-01-25T09:09:44;102131.19;;;6.19;73.43
84990;BME280;75307;53.836;10.476;2024-01-25T09:11:46;102140.75;;;6.22;73.68
84990;BME280;75307;53.836;10.476;2024-01-25T09:13:47;102143.41;;;6.23;73.22
84990;BME280;75307;53.836;10.476;2024-01-25T09:15:49;102140.78;;;6.25;73.24
84990;BME280;75307;53.836;10.476;2024-01-25T09:17:51;102132.97;;;6.26;73.23
84990;BME280;75307;53.836;10.476;2024-01-25T09:19:51;102146.91;;;6.31;73.54
84990;BME280;75307;53.836;10.476;2024-01-25T09:21:53;102146.03;;;6.32;72.96
84990;BME280;75307;53.836;10.476;2024-01-25T09:23:57;102160.88;;;6.35;73.21
84990;BME280;75307;53.836;10.476;2024-01-25T09:26:01;102147.81;;;6.35;73.20
84990;BME280;75307;53.836;10.476;2024-01-25T09:28:04;102151.31;;;6.37;73.33
84990;BME280;75307;53.836;10.476;2024-01-25T09:30:06;102156.56;;;6.38;72.71
84990;BME280;75307;53.836;10.476;2024-01-25T09:32:08;102161.78;;;6.40;72.96
84990;BME280;75307;53.836;10.476;2024-01-25T09:34:10;102168.78;;;6.42;72.93
84990;BME280;75307;53.836;10.476;2024-01-25T09:36:12;102163.56;;;6.44;72.65
84990;BME280;75307;53.836;10.476;2024-01-25T09:38:14;102174.91;;;6.48;72.67
84990;BME280;75307;53.836;10.476;2024-01-25T09:40:15;102176.63;;;6.50;73.17
84990;BME280;75307;53.836;10.476;2024-01-25T09:42:19;102176.66;;;6.55;73.10
84990;BME280;75307;53.836;10.476;2024-01-25T09:44:21;102174.97;;;6.57;73.03
84990;BME280;75307;53.836;10.476;2024-01-25T09:46:23;102181.06;;;6.60;72.96
84990;BME280;75307;53.836;10.476;2024-01-25T09:48:25;102185.47;;;6.66;72.94
84990;BME280;75307;53.836;10.476;2024-01-25T09:50:27;102180.28;;;6.72;72.87
84990;BME280;75307;53.836;10.476;2024-01-25T09:52:34;102183.78;;;6.79;72.27
84990;BME280;75307;53.836;10.476;2024-01-25T09:54:38;102187.31;;;6.87;72.34
84990;BME280;75307;53.836;10.476;2024-01-25T09:56:41;102185.59;;;6.90;72.23
84990;BME280;75307;53.836;10.476;2024-01-25T09:58:44;102186.50;;;6.97;72.11
84990;BME280;75307;53.836;10.476;2024-01-25T10:00:47;102191.75;;;7.00;72.09
84990;BME280;75307;53.836;10.476;2024-01-25T10:02:50;102198.69;;;6.95;71.81
84990;BME280;75307;53.836;10.476;2024-01-25T10:04:52;102190.81;;;6.87;72.24
84990;BME280;75307;53.836;10.476;2024-01-25T10:06:55;102206.50;;;6.90;72.27
84990;BME280;75307;53.836;10.476;2024-01-25T10:08:58;102207.31;;;6.83;72.30
84990;BME280;75307;53.836;10.476;2024-01-25T10:11:00;102214.25;;;6.80;72.52
84990;BME280;75307;53.836;10.476;2024-01-25T10:13:02;102219.53;;;6.83;72.47
84990;BME280;75307;53.836;10.476;2024-01-25T10:15:08;102228.31;;;6.96;72.33
84990;BME280;75307;53.836;10.476;2024-01-25T10:17:10;102222.19;;;6.92;72.04
84990;BME280;75307;53.836;10.476;2024-01-25T10:19:12;102228.28;;;6.94;72.26
84990;BME280;75307;53.836;10.476;2024-01-25T10:21:15;102223.09;;;6.99;72.13
84990;BME280;75307;53.836;10.476;2024-01-25T10:23:16;102228.34;;;7.03;71.82
84990;BME280;75307;53.836;10.476;2024-01-25T10:25:18;102231.00;;;7.11;71.71
84990;BME280;75307;53.836;10.476;2024-01-25T10:27:21;102223.19;;;7.22;71.66
84990;BME280;75307;53.836;10.476;2024-01-25T10:29:25;102227.56;;;7.21;71.63
84990;BME280;75307;53.836;10.476;2024-01-25T10:31:28;102235.41;;;7.19;71.95
84990;BME280;75307;53.836;10.476;2024-01-25T10:33:30;102228.44;;;7.28;71.37
84990;BME280;75307;53.836;10.476;2024-01-25T10:35:32;102242.44;;;7.42;71.35
84990;BME280;75307;53.836;10.476;2024-01-25T10:37:34;102231.16;;;7.49;71.23
84990;BME280;75307;53.836;10.476;2024-01-25T10:39:36;102246.84;;;7.44;71.24